Time;durP1;ratioP1;P1;durP2;ratioP2;P2;SDS_P1;SDS_P2;PMS_P1;PMS_P2;Temp;Humidity;BMP_temperature;BMP_pressure;BME280_temperature;BME280_humidity;BME280_pressure;Samples;Min_cycle;Max_cycle;Signal;HPM_P1;HPM_P2
2024/01/05 00:01:24;;;;;;;87.00;45.80;;;;;;;1.75;92.41;98015.61;105783;1259;68962;-76
2024/01/05 00:03:51;;;;;;;76.70;43.00;;;;;;;1.79;92.61;98019.81;105904;1254;73073;-78
2024/01/05 00:06:19;;;;;;;92.80;46.80;;;;;;;1.86;92.40;98019.90;105824;1257;60482;-78
2024/01/05 00:08:47;;;;;;;89.80;44.20;;;;;;;1.82;92.10;98022.87;105873;1252;60929;-79
2024/01/05 00:11:20;;;;;;;94.00;48.40;;;;;;;1.81;92.70;98022.04;105820;1254;72926;-79
2024/01/05 00:13:48;;;;;;;;;;;;;;;1.87;92.29;98025.74;105879;1254;69121;-79
2024/01/05 00:16:19;;;;;;;84.00;43.80;;;;;;;1.85;92.07;98026.35;105837;1254;72441;-77
2024/01/05 00:18:46;;;;;;;78.30;42.10;;;;;;;1.84;91.82;98026.61;105975;1256;61686;-77
2024/01/05 00:21:32;;;;;;;77.80;43.50;;;;;;;1.89;92.21;98033.45;107092;1253;60403;-75
2024/01/05 00:24:00;;;;;;;74.00;40.30;;;;;;;1.84;92.11;98039.88;107449;1254;72574;-78
2024/01/05 00:26:28;;;;;;;70.50;38.70;;;;;;;1.83;91.85;98037.40;107500;1256;70473;-77
2024/01/05 00:28:55;;;;;;;77.70;43.60;;;;;;;1.86;91.73;98038.34;107226;1257;71651;-78
2024/01/05 00:31:23;;;;;;;73.90;40.00;;;;;;;1.82;91.23;98034.91;105833;1254;60581;-79
2024/01/05 00:33:51;;;;;;;63.40;36.70;;;;;;;1.76;91.03;98033.63;105986;1256;60399;-79
2024/01/05 00:36:18;;;;;;;72.00;39.70;;;;;;;1.78;90.74;98037.51;106017;1252;72561;-78
2024/01/05 00:38:48;;;;;;;69.20;38.80;;;;;;;1.74;90.91;98037.60;105901;1254;70336;-76
2024/01/05 00:41:15;;;;;;;75.90;38.70;;;;;;;1.69;91.10;98040.62;105769;1259;71145;-80
2024/01/05 00:43:43;;;;;;;66.00;37.70;;;;;;;1.72;91.03;98038.29;105810;1254;60547;-80
2024/01/05 00:46:10;;;;;;;67.80;38.60;;;;;;;1.66;90.91;98039.71;106078;1258;60332;-80
2024/01/05 00:48:38;;;;;;;67.80;36.30;;;;;;;1.62;90.78;98039.45;106281;1258;73985;-79
2024/01/05 00:51:06;;;;;;;66.10;37.10;;;;;;;1.62;90.65;98045.90;106258;1254;69177;-80
2024/01/05 00:53:33;;;;;;;66.80;36.50;;;;;;;1.58;90.99;98052.75;108288;1252;70467;-78
2024/01/05 00:56:01;;;;;;;64.50;35.90;;;;;;;1.60;91.76;98059.20;109165;1253;61014;-79
2024/01/05 00:58:29;;;;;;;66.90;35.50;;;;;;;1.68;91.70;98058.02;107520;1253;60543;-79
2024/01/05 01:00:56;;;;;;;70.70;38.10;;;;;;;1.69;91.76;98057.58;107826;1253;73808;-79
2024/01/05 01:03:24;;;;;;;65.40;33.80;;;;;;;1.70;91.83;98054.15;107020;1254;68855;-77
2024/01/05 01:05:51;;;;;;;66.70;35.80;;;;;;;1.76;91.26;98055.71;105904;1253;72684;-79
2024/01/05 01:08:19;;;;;;;62.80;34.60;;;;;;;1.71;91.14;98053.69;105816;1254;60587;-78
2024/01/05 01:10:46;;;;;;;66.70;33.90;;;;;;;1.67;91.01;98052.77;105810;1259;60495;-78
2024/01/05 01:13:14;;;;;;;62.70;34.90;;;;;;;1.68;90.53;98055.11;105799;1254;72631;-77
2024/01/05 01:15:41;;;;;;;67.50;37.00;;;;;;;1.61;90.64;98053.35;105825;1254;70472;-79
2024/01/05 01:18:09;;;;;;;61.00;34.80;;;;;;;1.52;90.32;98050.18;106150;1254;72767;-80
2024/01/05 01:20:36;;;;;;;65.90;36.90;;;;;;;1.52;90.41;98049.49;105647;1256;60556;-77
2024/01/05 01:23:04;;;;;;;69.90;34.00;;;;;;;1.53;90.89;98050.61;105762;1254;60530;-76
2024/01/05 01:25:31;;;;;;;64.60;35.00;;;;;;;1.49;90.78;98055.91;105874;1254;73714;-80
2024/01/05 01:27:59;;;;;;;68.60;36.80;;;;;;;1.50;90.50;98060.54;105888;1256;68963;-80
2024/01/05 01:30:27;;;;;;;66.80;35.10;;;;;;;1.44;90.44;98063.05;105792;1254;70445;-79
2024/01/05 01:32:54;;;;;;;69.00;36.40;;;;;;;1.40;90.86;98060.00;105862;1254;61747;-80
2024/01/05 01:35:22;;;;;;;67.80;35.60;;;;;;;1.45;91.55;98060.13;106104;1253;60604;-78
2024/01/05 01:37:49;;;;;;;67.80;37.90;;;;;;;1.48;92.08;98061.63;105769;1259;73889;-80
2024/01/05 01:40:18;;;;;;;68.90;35.50;;;;;;;1.50;92.27;98064.01;106503;1257;70289;-78
2024/01/05 01:42:46;;;;;;;78.60;39.90;;;;;;;1.54;91.78;98056.22;105959;1254;72851;-78
2024/01/05 01:45:14;;;;;;;72.40;39.20;;;;;;;1.51;91.44;98060.45;106022;1258;60504;-80
2024/01/05 01:47:42;;;;;;;73.00;39.20;;;;;;;1.51;91.83;98056.55;106080;1258;60434;-79
2024/01/05 01:50:09;;;;;;;78.80;40.70;;;;;;;1.56;91.10;98056.83;107115;1253;73915;-78
2024/01/05 01:52:37;;;;;;;69.70;37.00;;;;;;;1.52;91.47;98066.20;109236;1257;69236;-79
2024/01/05 01:55:06;;;;;;;74.80;37.50;;;;;;;1.58;92.31;98060.86;108983;1254;71198;-79
2024/01/05 01:57:34;;;;;;;74.60;39.40;;;;;;;1.71;92.47;98066.36;106531;1252;60439;-80
2024/01/05 02:00:02;;;;;;;75.60;39.60;;;;;;;1.70;92.03;98068.27;106490;1256;60290;-81
2024/01/05 02:02:31;;;;;;;77.50;37.70;;;;;;;1.71;92.11;98065.63;106126;1252;73960;-77
2024/01/05 02:05:02;;;;;;;76.50;39.30;;;;;;;1.77;91.74;98068.98;105849;1259;68408;-79
2024/01/05 02:07:29;;;;;;;74.30;38.60;;;;;;;1.77;91.60;98071.86;105882;1259;71284;-79
2024/01/05 02:09:57;;;;;;;74.20;38.40;;;;;;;1.79;92.17;98069.71;106383;1254;61717;-80
2024/01/05 02:12:24;;;;;;;73.40;39.60;;;;;;;1.85;91.58;98069.16;105937;1259;61272;-79
2024/01/05 02:14:52;;;;;;;74.90;39.40;;;;;;;1.75;90.76;98065.54;106401;1252;72649;-79
2024/01/05 02:17:29;;;;;;;74.00;39.00;;;;;;;1.66;90.64;98069.06;106832;1256;70543;-78
2024/01/05 02:19:57;;;;;;;73.00;39.90;;;;;;;1.65;90.26;98069.72;106522;1254;72699;-78
2024/01/05 02:22:29;;;;;;;71.60;38.40;;;;;;;1.60;90.80;98072.61;106380;1254;60527;-77
2024/01/05 02:24:57;;;;;;;81.30;40.90;;;;;;;1.65;91.90;98072.81;106198;1254;60332;-80
2024/01/05 02:27:25;;;;;;;77.40;40.10;;;;;;;1.79;92.54;98077.89;105951;1254;73630;-77
2024/01/05 02:29:53;;;;;;;70.20;37.70;;;;;;;1.83;92.28;98076.55;106019;1254;70769;-79
2024/01/05 02:32:21;;;;;;;74.10;39.80;;;;;;;1.81;91.97;98078.92;106023;1257;70628;-78
2024/01/05 02:34:48;;;;;;;75.00;41.10;;;;;;;1.87;92.15;98081.52;105942;1259;60501;-79
2024/01/05 02:37:16;;;;;;;76.50;40.40;;;;;;;1.82;91.87;98082.89;105958;1253;60546;-82
2024/01/05 02:39:43;;;;;;;76.10;41.60;;;;;;;1.75;91.30;98080.52;105842;1254;72937;-80
2024/01/05 02:42:11;;;;;;;73.80;43.20;;;;;;;1.72;90.54;98080.90;105806;1254;70111;-80
2024/01/05 02:44:38;;;;;;;81.30;41.10;;;;;;;1.66;90.85;98086.73;106635;1254;73084;-78
2024/01/05 02:47:06;;;;;;;76.00;40.90;;;;;;;1.66;91.39;98088.45;107324;1258;60466;-80
2024/01/05 02:49:33;;;;;;;78.60;41.10;;;;;;;1.74;91.22;98093.80;107659;1254;60360;-78
2024/01/05 02:52:01;;;;;;;72.90;40.10;;;;;;;1.75;91.44;98093.98;108559;1253;72589;-78
2024/01/05 02:54:29;;;;;;;72.20;38.90;;;;;;;1.74;91.09;98093.23;107192;1258;68697;-78
2024/01/05 02:56:56;;;;;;;75.20;41.10;;;;;;;1.76;90.59;98092.30;106820;1254;74852;-80
2024/01/05 02:59:24;;;;;;;76.60;40.10;;;;;;;1.70;90.57;98095.59;105881;1254;60494;-78
2024/01/05 03:01:51;;;;;;;71.60;39.00;;;;;;;1.64;90.81;98094.08;105836;1254;60568;-80
2024/01/05 03:04:19;;;;;;;69.70;39.00;;;;;;;1.71;91.11;98095.63;105863;1252;74069;-78
2024/01/05 03:06:46;;;;;;;74.40;39.20;;;;;;;1.67;90.97;98096.38;105817;1252;70241;-77
2024/01/05 03:09:14;;;;;;;74.00;38.00;;;;;;;1.67;91.59;98097.55;105841;1256;72437;-78
2024/01/05 03:11:41;;;;;;;70.60;39.30;;;;;;;1.73;91.46;98098.92;105776;1253;60924;-76
2024/01/05 03:14:09;;;;;;;74.80;40.30;;;;;;;1.73;91.99;98098.90;105890;1254;60578;-78
2024/01/05 03:16:36;;;;;;;66.70;36.60;;;;;;;1.70;91.59;98102.86;105865;1258;73869;-77
2024/01/05 03:19:04;;;;;;;69.80;39.10;;;;;;;1.70;90.82;98105.66;105789;1259;68868;-79
2024/01/05 03:21:31;;;;;;;68.00;36.10;;;;;;;1.61;90.56;98107.98;105850;1254;71126;-75
2024/01/05 03:23:59;;;;;;;63.20;36.80;;;;;;;1.55;90.97;98110.30;105757;1259;61682;-78
2024/01/05 03:26:27;;;;;;;73.30;39.20;;;;;;;1.62;91.15;98109.09;105845;1257;60509;-79
2024/01/05 03:28:54;;;;;;;67.40;37.40;;;;;;;1.66;92.13;98114.65;106079;1258;76274;-76
2024/01/05 03:31:22;;;;;;;66.10;35.90;;;;;;;1.69;92.02;98115.05;106396;1257;68600;-78
2024/01/05 03:33:50;;;;;;;72.10;37.20;;;;;;;1.74;91.13;98113.70;106697;1254;71442;-77
2024/01/05 03:36:18;;;;;;;72.30;38.80;;;;;;;1.72;91.44;98115.05;106257;1256;60360;-78
2024/01/05 03:38:45;;;;;;;66.80;37.00;;;;;;;1.75;91.79;98114.58;105699;1254;61186;-77
2024/01/05 03:41:13;;;;;;;69.10;36.70;;;;;;;1.87;92.13;98109.77;105857;1253;73427;-77
2024/01/05 03:43:41;;;;;;;63.60;35.60;;;;;;;1.90;92.49;98107.20;106204;1257;68719;-79
2024/01/05 03:46:10;;;;;;;64.60;35.40;;;;;;;1.88;92.05;98105.85;106137;1254;72428;-78
2024/01/05 03:48:43;;;;;;;73.90;37.30;;;;;;;1.90;91.42;98105.92;109112;1254;60342;-78
2024/01/05 03:51:11;;;;;;;66.50;36.70;;;;;;;1.83;91.18;98109.29;108736;1254;59097;-79
2024/01/05 03:53:38;;;;;;;67.80;36.50;;;;;;;1.76;91.60;98111.71;106391;1257;72538;-79
2024/01/05 03:56:06;;;;;;;68.80;36.60;;;;;;;1.72;91.87;98115.09;105863;1254;70361;-78
2024/01/05 03:58:34;;;;;;;64.00;36.00;;;;;;;1.64;92.14;98112.87;105930;1257;72503;-79
2024/01/05 04:01:01;;;;;;;68.30;36.00;;;;;;;1.67;93.49;98112.99;105924;1259;60480;-77
2024/01/05 04:03:29;;;;;;;69.80;38.00;;;;;;;1.79;93.70;98115.50;105721;1254;60357;-78
2024/01/05 04:05:57;;;;;;;67.70;36.40;;;;;;;1.82;93.66;98118.84;105707;1253;72613;-79
2024/01/05 04:08:24;;;;;;;70.90;37.30;;;;;;;1.85;93.49;98120.09;105733;1259;68992;-81
2024/01/05 04:10:51;;;;;;;62.70;35.20;;;;;;;1.94;93.23;98116.54;106242;1256;71486;-77
2024/01/05 04:13:19;;;;;;;72.50;38.70;;;;;;;1.94;93.83;98124.20;105888;1254;60478;-78
2024/01/05 04:15:46;;;;;;;50.30;29.30;;;;;;;1.97;94.38;98122.35;105746;1259;60273;-78
2024/01/05 04:18:14;;;;;;;45.00;26.20;;;;;;;2.07;94.51;98123.98;105775;1255;71619;-78
2024/01/05 04:20:42;;;;;;;42.80;24.90;;;;;;;2.10;95.31;98126.98;105707;1254;70463;-77
2024/01/05 04:23:10;;;;;;;33.00;22.20;;;;;;;2.15;96.36;98128.09;105656;1257;71810;-79
2024/01/05 04:25:37;;;;;;;27.70;19.00;;;;;;;2.22;97.47;98127.62;105600;1254;61682;-77
2024/01/05 04:28:05;;;;;;;25.30;17.50;;;;;;;2.30;98.61;98127.11;105882;1254;60552;-78
2024/01/05 04:30:32;;;;;;;27.20;17.60;;;;;;;2.38;99.28;98132.23;106136;1259;72585;-76
2024/01/05 04:33:00;;;;;;;19.60;14.50;;;;;;;2.50;99.99;98131.02;106222;1259;69409;-79
2024/01/05 04:35:28;;;;;;;28.20;15.70;;;;;;;2.62;100.00;98133.66;106162;1257;71265;-77
2024/01/05 04:37:56;;;;;;;17.90;13.70;;;;;;;2.71;100.00;98132.00;106217;1256;61706;-79
2024/01/05 04:40:23;;;;;;;19.70;13.20;;;;;;;2.83;100.00;98140.25;106480;1254;60328;-80
2024/01/05 04:42:51;;;;;;;17.70;12.90;;;;;;;2.91;100.00;98134.17;106598;1259;73807;-77
2024/01/05 04:45:18;;;;;;;17.10;11.60;;;;;;;2.97;100.00;98135.64;107864;1254;69094;-76
2024/01/05 04:47:46;;;;;;;15.50;12.20;;;;;;;3.05;100.00;98138.73;107805;1254;72077;-77
2024/01/05 04:50:14;;;;;;;14.80;10.70;;;;;;;3.07;100.00;98144.59;108200;1254;60415;-79
2024/01/05 04:52:42;;;;;;;14.80;10.90;;;;;;;3.11;100.00;98147.72;107803;1254;60342;-77
2024/01/05 04:55:09;;;;;;;13.60;9.60;;;;;;;3.18;100.00;98149.09;106791;1259;74118;-78
2024/01/05 04:57:37;;;;;;;15.50;10.70;;;;;;;3.22;100.00;98155.31;106655;1259;69111;-77
2024/01/05 05:00:06;;;;;;;14.30;10.70;;;;;;;3.25;100.00;98152.34;105868;1259;71496;-78
2024/01/05 05:02:34;;;;;;;12.50;9.10;;;;;;;3.30;100.00;98158.61;105762;1257;61694;-76
2024/01/05 05:05:02;;;;;;;15.00;10.60;;;;;;;3.35;100.00;98166.51;105739;1257;60550;-76
2024/01/05 05:07:29;;;;;;;15.60;11.40;;;;;;;3.36;100.00;98168.16;105790;1259;73145;-78
2024/01/05 05:09:56;;;;;;;14.50;10.60;;;;;;;3.41;100.00;98174.34;105834;1260;70284;-78
2024/01/05 05:12:24;;;;;;;15.70;10.90;;;;;;;3.45;100.00;98176.71;105788;1257;72456;-76
2024/01/05 05:14:53;;;;;;;14.50;9.20;;;;;;;3.46;100.00;98184.65;105664;1256;60510;-76
2024/01/05 05:17:20;;;;;;;13.90;10.30;;;;;;;3.46;100.00;98188.66;105562;1257;60572;-78
2024/01/05 05:19:49;;;;;;;15.00;11.40;;;;;;;3.50;100.00;98188.60;105675;1259;73904;-78
2024/01/05 05:22:16;;;;;;;11.00;8.70;;;;;;;3.53;100.00;98187.27;105830;1257;70218;-79
2024/01/05 05:24:44;;;;;;;14.80;9.90;;;;;;;3.56;100.00;98189.08;106015;1256;72475;-77
2024/01/05 05:27:11;;;;;;;11.50;9.10;;;;;;;3.57;100.00;98192.75;106294;1255;62086;-77
2024/01/05 05:29:39;;;;;;;11.70;8.80;;;;;;;3.59;100.00;98195.73;105777;1259;60126;-79
2024/01/05 05:32:06;;;;;;;11.70;8.60;;;;;;;3.55;100.00;98196.65;105781;1255;71733;-79
2024/01/05 05:34:34;;;;;;;10.70;8.70;;;;;;;3.56;100.00;98197.61;105792;1262;69020;-79
2024/01/05 05:37:01;;;;;;;15.10;9.40;;;;;;;3.58;100.00;98198.10;105634;1257;73188;-79
2024/01/05 05:39:29;;;;;;;10.30;8.30;;;;;;;3.59;100.00;98201.67;106211;1256;61789;-79
2024/01/05 05:41:57;;;;;;;11.10;8.10;;;;;;;3.61;100.00;98205.34;106256;1257;60584;-79
2024/01/05 05:44:24;;;;;;;10.60;8.00;;;;;;;3.63;100.00;98210.01;107236;1254;75990;-77
2024/01/05 05:46:52;;;;;;;9.20;8.00;;;;;;;3.63;100.00;98212.48;108844;1254;68795;-77
2024/01/05 05:49:19;;;;;;;10.30;8.00;;;;;;;3.64;100.00;98221.59;107909;1259;72394;-79
2024/01/05 05:51:47;;;;;;;9.50;7.50;;;;;;;3.63;100.00;98220.73;105829;1257;62008;-78
2024/01/05 05:54:15;;;;;;;9.80;7.70;;;;;;;3.63;100.00;98225.92;105948;1259;60626;-76
2024/01/05 05:56:42;;;;;;;8.60;7.00;;;;;;;3.65;100.00;98229.80;105722;1259;73734;-77
2024/01/05 05:59:10;;;;;;;8.90;6.90;;;;;;;3.64;100.00;98230.75;105686;1257;70314;-76
2024/01/05 06:01:37;;;;;;;9.50;7.50;;;;;;;3.62;100.00;98236.53;105699;1259;71401;-79
2024/01/05 06:04:07;;;;;;;9.60;7.00;;;;;;;3.65;100.00;98240.66;105662;1258;60448;-79
2024/01/05 06:06:35;;;;;;;10.80;7.90;;;;;;;3.64;100.00;98242.83;105600;1261;60447;-79
2024/01/05 06:09:04;;;;;;;11.80;7.30;;;;;;;3.60;100.00;98245.05;105756;1256;72369;-79
2024/01/05 06:11:32;;;;;;;8.60;6.40;;;;;;;3.61;100.00;98249.33;105606;1259;68698;-79
2024/01/05 06:13:59;;;;;;;9.60;7.10;;;;;;;3.62;100.00;98249.20;105804;1262;71110;-77
2024/01/05 06:16:27;;;;;;;9.40;6.60;;;;;;;3.62;100.00;98253.92;105656;1256;60540;-80
2024/01/05 06:18:54;;;;;;;8.60;6.70;;;;;;;3.64;100.00;98249.98;105899;1257;60630;-80
2024/01/05 06:21:22;;;;;;;8.30;7.20;;;;;;;3.58;100.00;98254.27;106423;1260;72802;-79
2024/01/05 06:23:49;;;;;;;9.80;6.90;;;;;;;3.57;100.00;98257.18;106394;1259;68980;-79
2024/01/05 06:26:17;;;;;;;8.50;7.10;;;;;;;3.58;100.00;98258.31;107297;1256;71658;-79
2024/01/05 06:28:44;;;;;;;8.70;6.60;;;;;;;3.59;100.00;98261.04;109068;1256;60424;-79
2024/01/05 06:31:12;;;;;;;7.20;6.50;;;;;;;3.61;100.00;98263.44;105655;1260;60359;-77
2024/01/05 06:33:40;;;;;;;8.00;6.10;;;;;;;3.65;100.00;98271.13;105589;1257;72653;-79
2024/01/05 06:36:07;;;;;;;10.60;6.70;;;;;;;3.63;100.00;98274.64;106017;1259;68773;-78
2024/01/05 06:38:35;;;;;;;10.00;6.10;;;;;;;3.62;100.00;98276.67;105976;1257;71081;-78
2024/01/05 06:41:02;;;;;;;6.70;5.20;;;;;;;3.60;100.00;98279.45;106018;1258;61742;-78
2024/01/05 06:43:30;;;;;;;8.50;5.60;;;;;;;3.60;100.00;98285.06;107266;1255;60413;-77
2024/01/05 06:45:57;;;;;;;5.90;5.10;;;;;;;3.58;100.00;98290.86;107504;1256;72752;-78
2024/01/05 06:48:25;;;;;;;7.00;5.10;;;;;;;3.60;100.00;98299.45;107134;1256;68783;-78
2024/01/05 06:50:53;;;;;;;8.40;5.30;;;;;;;3.62;100.00;98307.95;105989;1259;71432;-78
2024/01/05 06:53:20;;;;;;;5.80;4.40;;;;;;;3.60;100.00;98314.67;105790;1257;61625;-77
2024/01/05 06:55:48;;;;;;;5.70;4.20;;;;;;;3.59;100.00;98321.29;105806;1259;60423;-79
2024/01/05 06:58:15;;;;;;;6.20;4.20;;;;;;;3.57;100.00;98325.64;105742;1257;73769;-77
2024/01/05 07:00:43;;;;;;;5.60;3.90;;;;;;;3.50;100.00;98333.92;105876;1256;70221;-79
2024/01/05 07:03:11;;;;;;;4.50;3.60;;;;;;;3.44;100.00;98342.59;105843;1258;72679;-78
2024/01/05 07:05:38;;;;;;;5.50;3.70;;;;;;;3.43;100.00;98347.45;106235;1256;60415;-79
2024/01/05 07:08:07;;;;;;;4.10;3.00;;;;;;;3.40;100.00;98348.56;106142;1259;60755;-77
2024/01/05 07:10:35;;;;;;;4.70;3.10;;;;;;;3.26;100.00;98353.27;106007;1254;73107;-80
2024/01/05 07:13:06;;;;;;;6.60;4.40;;;;;;;3.14;100.00;98356.59;105882;1254;69034;-79
2024/01/05 07:15:34;;;;;;;4.20;3.00;;;;;;;3.12;100.00;98358.23;106317;1259;72785;-80
2024/01/05 07:18:01;;;;;;;4.40;3.00;;;;;;;3.07;100.00;98356.24;106154;1254;60515;-80
2024/01/05 07:20:29;;;;;;;4.30;2.70;;;;;;;3.02;100.00;98363.39;105901;1255;174684;-80
2024/01/05 07:22:57;;;;;;;3.80;2.60;;;;;;;3.03;100.00;98369.10;106079;1258;73890;-79
2024/01/05 07:26:09;;;;;;;4.30;2.70;;;;;;;2.97;100.00;98373.51;102680;1294;600312;-78
2024/01/05 07:28:37;;;;;;;3.90;2.50;;;;;;;2.88;100.00;98379.73;105060;1274;60432;-79
2024/01/05 07:31:05;;;;;;;4.00;2.70;;;;;;;2.86;100.00;98384.04;105124;1269;60122;-78
2024/01/05 07:33:33;;;;;;;3.40;2.40;;;;;;;2.85;100.00;98391.36;105517;1269;70964;-79
2024/01/05 07:36:04;;;;;;;3.60;2.70;;;;;;;2.81;100.00;98398.03;106336;1267;71073;-79
2024/01/05 07:38:35;;;;;;;4.20;2.60;;;;;;;2.78;100.00;98401.27;105495;1263;162570;-78
2024/01/05 07:41:03;;;;;;;3.30;2.10;;;;;;;2.76;100.00;98407.30;105983;1262;59166;-80
2024/01/05 07:43:31;;;;;;;2.90;2.30;;;;;;;2.73;100.00;98417.65;108701;1262;58804;-80
2024/01/05 07:46:02;;;;;;;4.00;2.90;;;;;;;2.78;100.00;98422.84;108530;1260;73271;-79
2024/01/05 07:48:31;;;;;;;3.50;2.70;;;;;;;2.81;100.00;98429.98;105878;1266;69050;-79
2024/01/05 07:51:03;;;;;;;4.20;3.00;;;;;;;2.77;100.00;98434.58;105386;1263;71939;-80
2024/01/05 07:53:30;;;;;;;3.70;2.70;;;;;;;2.76;100.00;98440.10;105782;1256;61770;-81
2024/01/05 07:56:04;;;;;;;3.60;2.80;;;;;;;2.78;100.00;98445.33;105901;1254;59497;-80
2024/01/05 07:58:32;;;;;;;4.30;3.40;;;;;;;2.76;100.00;98450.60;106309;1259;72991;-79
2024/01/05 08:01:00;;;;;;;6.50;3.70;;;;;;;2.73;100.00;98453.52;106090;1257;70318;-80
2024/01/05 08:03:28;;;;;;;4.70;3.40;;;;;;;2.75;100.00;98460.85;106811;1259;71393;-80
2024/01/05 08:05:57;;;;;;;4.60;3.10;;;;;;;2.74;100.00;98464.94;106109;1254;59738;-80
2024/01/05 08:08:24;;;;;;;3.90;2.50;;;;;;;2.66;100.00;98470.67;105993;1258;59545;-80
2024/01/05 08:10:52;;;;;;;4.90;3.10;;;;;;;2.64;100.00;98477.99;105903;1253;72125;-80
2024/01/05 08:13:23;;;;;;;3.70;2.70;;;;;;;2.64;100.00;98483.10;105939;1255;69990;-81
2024/01/05 08:15:51;;;;;;;4.40;3.10;;;;;;;2.56;100.00;98492.88;105992;1259;71820;-80
2024/01/05 08:18:18;;;;;;;3.90;2.90;;;;;;;2.55;100.00;98501.04;106099;1256;61632;-80
2024/01/05 08:20:46;;;;;;;5.90;3.60;;;;;;;2.58;100.00;98504.66;106231;1254;60006;-80
2024/01/05 08:23:14;;;;;;;4.70;3.40;;;;;;;2.53;100.00;98510.55;106034;1262;73071;-79
2024/01/05 08:25:41;;;;;;;4.70;3.20;;;;;;;2.46;100.00;98519.91;106097;1262;69302;-81
2024/01/05 08:28:09;;;;;;;3.60;3.20;;;;;;;2.44;100.00;98520.15;106412;1261;73027;-78
2024/01/05 08:30:37;;;;;;;4.50;3.10;;;;;;;2.45;100.00;98525.14;106325;1264;59527;-78
2024/01/05 08:33:06;;;;;;;5.20;3.60;;;;;;;2.45;100.00;98533.09;106442;1257;60202;-77
2024/01/05 08:35:36;;;;;;;5.30;3.20;;;;;;;2.47;100.00;98532.92;105907;1260;71861;-78
2024/01/05 08:38:04;;;;;;;4.80;3.30;;;;;;;2.48;100.00;98536.29;106314;1259;70099;-80
2024/01/05 08:40:32;;;;;;;4.50;3.50;;;;;;;2.46;100.00;98542.28;106912;1256;72706;-78
2024/01/05 08:42:59;;;;;;;4.90;3.10;;;;;;;2.49;100.00;98542.14;108423;1254;60584;-78
2024/01/05 08:45:29;;;;;;;3.00;2.50;;;;;;;2.55;100.00;98545.83;108544;1260;60348;-79
2024/01/05 08:47:57;;;;;;;2.90;2.30;;;;;;;2.55;100.00;98553.86;107842;1257;70867;-76
2024/01/05 08:50:25;;;;;;;5.20;3.10;;;;;;;2.60;100.00;98551.81;107777;1255;69747;-80
2024/01/05 08:52:52;;;;;;;3.80;3.10;;;;;;;2.72;100.00;98557.16;107367;1260;71423;-79
2024/01/05 08:55:20;;;;;;;5.60;3.70;;;;;;;2.78;100.00;98564.11;107054;1256;59588;-78
2024/01/05 08:57:48;;;;;;;3.90;3.00;;;;;;;2.89;100.00;98567.00;106534;1257;59985;-77
2024/01/05 09:00:18;;;;;;;3.80;3.40;;;;;;;3.00;100.00;98576.88;106234;1257;73050;-76
2024/01/05 09:02:46;;;;;;;4.30;3.50;;;;;;;2.96;100.00;98580.88;106313;1261;68687;-79
2024/01/05 09:05:14;;;;;;;5.30;3.70;;;;;;;2.93;99.48;98581.52;106050;1259;74724;-79
2024/01/05 09:07:41;;;;;;;3.50;3.00;;;;;;;2.89;99.43;98587.15;105838;1264;59739;-77
2024/01/05 09:10:09;;;;;;;3.80;3.00;;;;;;;2.79;99.41;98594.06;106063;1259;60103;-79
2024/01/05 09:12:37;;;;;;;5.70;3.30;;;;;;;2.74;99.69;98598.92;106012;1258;72242;-77
2024/01/05 09:15:06;;;;;;;5.00;3.50;;;;;;;2.81;99.94;98597.19;105881;1261;68711;-78
2024/01/05 09:17:33;;;;;;;5.20;3.60;;;;;;;2.85;99.55;98604.82;106044;1260;71706;-78
2024/01/05 09:20:03;;;;;;;5.40;4.20;;;;;;;2.79;99.15;98604.39;105930;1255;60541;-77
2024/01/05 09:22:31;;;;;;;5.30;3.30;;;;;;;2.74;99.45;98607.48;106043;1264;61330;-78
2024/01/05 09:24:58;;;;;;;4.80;3.30;;;;;;;2.80;99.30;98604.85;106266;1258;73044;-82
2024/01/05 09:27:26;;;;;;;4.20;3.30;;;;;;;2.83;99.35;98608.02;106095;1260;70318;-76
2024/01/05 09:29:53;;;;;;;5.00;3.40;;;;;;;2.84;99.83;98611.04;106231;1257;71470;-77
2024/01/05 09:32:21;;;;;;;4.50;3.60;;;;;;;2.90;99.73;98615.23;106478;1258;60401;-80
2024/01/05 09:34:49;;;;;;;4.30;3.30;;;;;;;2.93;99.66;98617.67;106188;1262;59524;-79
2024/01/05 09:37:17;;;;;;;4.30;3.50;;;;;;;2.93;98.95;98621.77;106200;1259;71796;-80
2024/01/05 09:39:45;;;;;;;4.50;3.50;;;;;;;2.94;99.08;98620.61;106900;1257;69238;-80
2024/01/05 09:42:12;;;;;;;6.60;4.10;;;;;;;3.00;99.44;98626.52;108897;1256;72068;-79
2024/01/05 09:44:40;;;;;;;4.90;3.50;;;;;;;3.06;99.00;98625.91;108355;1256;60691;-80
2024/01/05 09:47:08;;;;;;;4.30;3.50;;;;;;;3.08;98.00;98630.15;105862;1256;59715;-79
2024/01/05 09:49:35;;;;;;;4.40;3.00;;;;;;;2.97;97.81;98632.20;105823;1263;71494;-80
2024/01/05 09:52:04;;;;;;;6.00;3.80;;;;;;;2.94;98.26;98637.86;105984;1263;68706;-81
2024/01/05 09:54:31;;;;;;;6.50;4.50;;;;;;;2.94;97.88;98639.95;105999;1257;72445;-81
2024/01/05 09:56:59;;;;;;;6.00;4.10;;;;;;;2.86;97.13;98641.60;105737;1258;61712;-80
2024/01/05 09:59:26;;;;;;;5.50;4.50;;;;;;;2.84;97.54;98650.41;107652;1256;59665;-80
2024/01/05 10:01:54;;;;;;;5.20;4.00;;;;;;;2.86;97.08;98649.89;107913;1258;73079;-81
2024/01/05 10:04:21;;;;;;;5.60;4.60;;;;;;;2.80;97.15;98656.34;106100;1257;68911;-78
2024/01/05 10:06:59;;;;;;;6.60;4.20;;;;;;;2.81;97.57;98659.40;105959;1260;70498;-80
2024/01/05 10:09:28;;;;;;;6.20;4.00;;;;;;;2.84;97.35;98662.51;106398;1257;60283;-80
2024/01/05 10:11:57;;;;;;;5.70;4.60;;;;;;;2.74;97.00;98667.08;106192;1260;59501;-80
2024/01/05 10:14:25;;;;;;;5.60;3.70;;;;;;;2.69;96.93;98664.61;106018;1257;73508;-79
2024/01/05 10:17:09;;;;;;;5.90;4.10;;;;;;;2.70;96.81;98664.49;107002;1249;69311;-81
2024/01/05 10:19:39;;;;;;;6.60;4.00;;;;;;;2.60;95.72;98677.84;107252;1256;71409;-80
2024/01/05 10:22:14;;;;;;;4.60;4.10;;;;;;;2.51;95.18;98680.77;108606;1256;60945;-80
2024/01/05 10:24:42;;;;;;;6.00;4.90;;;;;;;2.49;95.50;98684.84;107927;1256;59342;-79
2024/01/05 10:27:11;;;;;;;4.70;4.00;;;;;;;2.45;95.75;98686.42;107273;1255;73992;-79
2024/01/05 10:29:43;;;;;;;7.40;5.40;;;;;;;2.46;95.72;98689.42;107400;1256;69907;-79
2024/01/05 10:32:13;;;;;;;6.50;5.10;;;;;;;2.43;95.46;98692.88;106175;1261;72580;-81
2024/01/05 10:34:42;;;;;;;6.20;5.10;;;;;;;2.43;95.43;98690.45;106160;1256;60399;-80
2024/01/05 10:37:09;;;;;;;6.30;5.50;;;;;;;2.35;95.26;98704.76;106542;1256;59472;-80
2024/01/05 10:39:37;;;;;;;7.10;5.40;;;;;;;2.29;95.37;98707.80;107467;1255;72844;-78
2024/01/05 10:42:19;;;;;;;6.80;6.00;;;;;;;2.29;95.37;98714.98;108881;1259;67918;-79
2024/01/05 10:44:51;;;;;;;7.90;6.40;;;;;;;2.26;95.46;98720.64;107009;1256;71370;-80
2024/01/05 10:47:20;;;;;;;6.90;5.70;;;;;;;2.23;96.25;98726.16;106086;1256;62958;-78
2024/01/05 10:49:50;;;;;;;7.30;5.60;;;;;;;2.24;96.53;98727.81;106331;1256;59613;-81
2024/01/05 10:52:22;;;;;;;6.60;5.50;;;;;;;2.23;95.95;98727.45;105819;1256;71886;-79
2024/01/05 10:54:52;;;;;;;6.60;5.90;;;;;;;2.21;95.41;98738.22;105742;1256;69246;-79
2024/01/05 10:57:20;;;;;;;7.60;5.40;;;;;;;2.18;95.81;98739.92;105958;1260;73238;-80
2024/01/05 10:59:49;;;;;;;7.70;6.00;;;;;;;2.18;95.53;98744.95;106126;1256;59725;-79
2024/01/05 11:02:21;;;;;;;8.30;6.40;;;;;;;2.13;95.16;98751.82;106888;1255;62176;-80
2024/01/05 11:05:14;;;;;;;7.90;6.40;;;;;;;2.12;95.00;98755.98;105965;1257;75021;-79
2024/01/05 11:07:42;;;;;;;9.30;6.20;;;;;;;2.09;95.96;98764.64;106425;1255;71404;-80
2024/01/05 11:10:29;;;;;;;6.70;5.60;;;;;;;2.11;96.27;98771.98;106160;1255;72674;-80
2024/01/05 11:13:07;;;;;;;7.20;6.40;;;;;;;2.18;96.42;98775.85;106354;1256;60133;-79
2024/01/05 11:15:34;;;;;;;7.90;6.10;;;;;;;2.14;96.36;98779.60;106260;1260;60245;-79
2024/01/05 11:18:10;;;;;;;8.30;6.20;;;;;;;2.11;96.09;98782.66;106414;1256;74055;-79
2024/01/05 11:20:57;;;;;;;8.20;6.60;;;;;;;2.13;95.46;98788.91;106773;1256;70516;-79
2024/01/05 11:23:24;;;;;;;8.10;6.50;;;;;;;2.01;95.22;98796.06;106294;1260;71524;-80
2024/01/05 11:25:54;;;;;;;7.30;6.30;;;;;;;1.94;94.90;98793.86;106188;1256;60409;-80
2024/01/05 11:28:34;;;;;;;10.60;6.90;;;;;;;1.98;95.32;98800.23;107525;1254;59940;-80